Time;durP1;ratioP1;P1;durP2;ratioP2;P2;SDS_P1;SDS_P2;PMS_P1;PMS_P2;Temp;Humidity;BMP_temperature;BMP_pressure;BME280_temperature;BME280_humidity;BME280_pressure;Samples;Min_cycle;Max_cycle;Signal;HPM_P1;HPM_P2
2022/04/21 00:01:08;;;;;;;5.00;2.70;;;8.70;99.90;;;;;;5059748;28;20229;-58
2022/04/21 00:03:35;;;;;;;3.83;2.80;;;8.70;99.90;;;;;;5044907;28;20195;-58
2022/04/21 00:06:02;;;;;;;3.60;2.87;;;8.70;99.90;;;;;;5042434;28;20827;-59
2022/04/21 00:08:29;;;;;;;6.93;2.60;;;8.70;99.90;;;;;;5058020;28;20201;-58
2022/04/21 00:10:56;;;;;;;7.57;2.67;;;8.70;99.90;;;;;;5060375;28;20218;-59
2022/04/21 00:13:23;;;;;;;5.20;2.80;;;8.70;99.90;;;;;;5062343;28;20240;-58
2022/04/21 00:15:50;;;;;;;3.10;2.47;;;8.70;99.90;;;;;;5059404;28;20296;-59
2022/04/21 00:18:17;;;;;;;4.47;2.70;;;8.70;99.90;;;;;;5042841;28;20202;-59
2022/04/21 00:20:44;;;;;;;4.57;2.97;;;8.60;99.90;;;;;;5057510;28;20202;-58
2022/04/21 00:23:26;;;;;;;5.70;3.57;;;8.60;99.90;;;;;;5042418;28;20237;-59
2022/04/21 00:25:58;;;;;;;6.30;3.40;;;8.50;99.90;;;;;;5039948;28;20301;-59
2022/04/21 00:28:28;;;;;;;5.30;3.07;;;8.30;99.90;;;;;;5062554;28;20217;-59
2022/04/21 00:30:55;;;;;;;4.53;2.97;;;8.20;99.90;;;;;;5058622;28;20720;-59
2022/04/21 00:33:22;;;;;;;6.43;3.00;;;8.20;99.90;;;;;;5060525;28;20190;-59
2022/04/21 00:35:49;;;;;;;3.33;2.83;;;8.20;99.90;;;;;;5059960;28;20211;-58
2022/04/21 00:38:16;;;;;;;5.20;3.00;;;8.20;99.90;;;;;;5045385;28;20705;-59
2022/04/21 00:40:43;;;;;;;6.07;2.70;;;8.20;99.90;;;;;;5039025;28;20316;-59
2022/04/21 00:43:10;;;;;;;6.33;2.93;;;8.20;99.90;;;;;;5060749;28;21198;-59
2022/04/21 00:45:37;;;;;;;4.93;3.20;;;8.20;99.90;;;;;;5056145;28;20720;-58
2022/04/21 00:48:05;;;;;;;3.50;2.70;;;8.20;99.90;;;;;;5056746;28;20205;-59
2022/04/21 00:50:37;;;;;;;6.27;3.07;;;8.10;99.90;;;;;;5059839;28;20226;-59
2022/04/21 00:53:06;;;;;;;5.37;3.10;;;8.00;99.90;;;;;;5062460;28;20203;-59
2022/04/21 00:55:36;;;;;;;3.33;2.57;;;8.00;99.90;;;;;;5046554;28;20616;-59
2022/04/21 00:58:07;;;;;;;5.80;3.57;;;8.00;99.90;;;;;;5061043;28;20199;-59
2022/04/21 01:00:34;;;;;;;5.00;3.07;;;8.00;99.90;;;;;;5058976;28;20224;-59
2022/04/21 01:03:02;;;;;;;4.30;2.93;;;7.90;99.90;;;;;;5059063;28;20280;-60
2022/04/21 01:05:31;;;;;;;4.20;2.80;;;7.90;99.90;;;;;;5046419;28;20210;-60
2022/04/21 01:08:06;;;;;;;5.30;3.00;;;7.80;1.00;;;;;;5061311;28;20198;-59
2022/04/21 01:10:36;;;;;;;3.50;2.87;;;7.80;99.90;;;;;;5062295;28;20182;-60
2022/04/21 01:13:06;;;;;;;5.23;3.00;;;7.80;1.00;;;;;;5038240;28;20733;-60
2022/04/21 01:15:35;;;;;;;4.20;3.00;;;7.80;1.00;;;;;;5063969;28;20433;-60
2022/04/21 01:18:03;;;;;;;8.37;3.03;;;7.70;1.00;;;;;;5064468;28;20194;-59
2022/04/21 01:20:30;;;;;;;4.30;3.23;;;7.70;1.00;;;;;;5061982;28;20248;-60
2022/04/21 01:22:57;;;;;;;4.60;3.00;;;7.50;1.00;;;;;;5061854;28;20297;-60
2022/04/21 01:25:25;;;;;;;4.13;3.50;;;7.50;1.00;;;;;;5061710;28;20375;-60
2022/04/21 01:28:00;;;;;;;4.97;3.10;;;7.60;1.00;;;;;;5062671;28;20386;-60
2022/04/21 01:30:27;;;;;;;5.57;3.50;;;7.50;1.00;;;;;;5057455;28;20669;-60
2022/04/21 01:32:54;;;;;;;8.20;3.70;;;7.50;1.00;;;;;;5059134;28;20194;-60
2022/04/21 01:35:21;;;;;;;3.97;3.17;;;7.60;1.00;;;;;;5062143;28;20279;-60
2022/04/21 01:43:18;;;;;;;4.77;3.33;;;7.50;1.00;;;;;;5061086;28;20191;-59
2022/04/21 01:45:45;;;;;;;3.47;3.17;;;7.50;1.00;;;;;;5061310;28;20207;-59
2022/04/21 01:48:12;;;;;;;7.73;3.40;;;7.40;1.00;;;;;;5060643;28;20693;-59
2022/04/21 01:50:39;;;;;;;7.50;3.30;;;7.40;1.00;;;;;;5061961;28;20788;-59
2022/04/21 01:53:06;;;;;;;5.90;3.40;;;7.40;1.00;;;;;;5060980;28;20280;-59
2022/04/21 01:55:33;;;;;;;6.57;3.17;;;7.40;1.00;;;;;;5062311;28;20879;-59
2022/04/21 01:58:00;;;;;;;4.40;3.50;;;7.30;1.00;;;;;;5063154;28;20281;-59
2022/04/21 02:00:28;;;;;;;5.20;3.53;;;7.40;1.00;;;;;;5038207;28;20303;-59
2022/04/21 02:02:55;;;;;;;5.43;3.10;;;7.30;1.00;;;;;;5060126;28;20226;-59
2022/04/21 02:05:22;;;;;;;9.50;3.80;;;7.30;1.00;;;;;;5060164;28;20215;-59
2022/04/21 02:07:49;;;;;;;6.13;3.90;;;7.30;1.00;;;;;;5059788;28;20309;-59
2022/04/21 02:10:19;;;;;;;4.60;3.40;;;7.30;1.00;;;;;;5061826;28;20608;-59
2022/04/21 02:12:46;;;;;;;9.53;3.80;;;7.30;1.00;;;;;;5059256;28;20245;-59
2022/04/21 02:15:14;;;;;;;5.53;3.90;;;7.20;1.00;;;;;;5057172;28;20235;-59
2022/04/21 02:17:41;;;;;;;7.97;3.97;;;7.20;1.00;;;;;;5059455;28;20198;-58
2022/04/21 02:20:10;;;;;;;5.83;3.97;;;7.20;1.00;;;;;;5060797;28;20252;-59
2022/04/21 02:22:37;;;;;;;5.67;4.47;;;7.30;1.00;;;;;;5040202;28;20218;-59
2022/04/21 02:25:06;;;;;;;5.70;3.90;;;7.30;1.00;;;;;;5064560;28;20211;-59
2022/04/21 02:27:37;;;;;;;8.67;5.00;;;7.30;1.00;;;;;;5064833;28;20249;-60
2022/04/21 02:30:05;;;;;;;5.33;4.23;;;7.20;1.00;;;;;;5059995;28;20190;-60
2022/04/21 02:32:33;;;;;;;5.23;3.90;;;7.20;1.00;;;;;;5061890;28;20199;-60
2022/04/21 02:35:01;;;;;;;4.23;3.77;;;7.10;1.00;;;;;;5059017;28;20209;-59
2022/04/21 02:37:28;;;;;;;5.40;3.53;;;7.10;1.00;;;;;;5061640;28;20195;-59
2022/04/21 02:39:55;;;;;;;7.00;3.83;;;7.00;1.00;;;;;;5060343;28;20313;-59
2022/04/21 02:42:22;;;;;;;8.13;3.63;;;7.00;1.00;;;;;;5060577;28;21865;-60
2022/04/21 02:44:49;;;;;;;5.53;4.00;;;7.00;1.00;;;;;;5044700;28;20766;-59
2022/04/21 02:47:17;;;;;;;4.67;3.60;;;6.90;1.00;;;;;;5059615;28;20183;-59
2022/04/21 02:49:46;;;;;;;4.70;3.70;;;6.90;1.00;;;;;;5062089;28;20237;-58
2022/04/21 02:52:14;;;;;;;5.50;3.90;;;6.70;1.00;;;;;;5060571;28;20199;-58
2022/04/21 02:57:30;;;;;;;6.77;4.03;;;6.60;1.00;;;;;;5046495;28;20282;-58
2022/04/21 02:59:59;;;;;;;4.20;3.77;;;6.50;1.00;;;;;;5039931;28;20205;-59
2022/04/21 03:02:26;;;;;;;6.80;3.50;;;6.50;1.00;;;;;;5062764;28;20716;-59
2022/04/21 03:04:54;;;;;;;8.20;3.83;;;6.50;1.00;;;;;;5043537;28;20215;-59
2022/04/21 03:07:22;;;;;;;8.57;3.50;;;6.50;1.00;;;;;;5060023;28;20227;-59
2022/04/21 03:09:53;;;;;;;4.20;3.80;;;6.50;1.00;;;;;;5041517;28;20199;-59
2022/04/21 03:12:26;;;;;;;7.37;4.10;;;6.50;1.00;;;;;;5065866;28;20198;-59
2022/04/21 03:14:55;;;;;;;5.40;3.90;;;6.50;1.00;;;;;;5062120;28;20314;-59
2022/04/21 03:17:23;;;;;;;5.43;3.77;;;6.40;1.00;;;;;;5061929;28;20199;-58
2022/04/21 03:19:51;;;;;;;13.87;3.93;;;6.40;1.00;;;;;;5062736;28;20214;-59
2022/04/21 03:25:06;;;;;;;6.17;3.83;;;6.30;1.00;;;;;;5046988;28;20754;-59
2022/04/21 03:27:33;;;;;;;5.83;3.93;;;6.30;1.00;;;;;;5065721;28;20284;-59
2022/04/21 03:30:02;;;;;;;6.77;3.47;;;6.30;1.00;;;;;;5045429;28;20819;-59
2022/04/21 03:32:29;;;;;;;5.73;3.83;;;6.20;1.00;;;;;;5044048;28;20198;-59
2022/04/21 03:34:56;;;;;;;6.17;4.30;;;6.20;1.00;;;;;;5058780;28;20321;-59
2022/04/21 03:37:23;;;;;;;6.03;4.23;;;6.20;1.00;;;;;;5059203;28;20822;-59
2022/04/21 03:39:51;;;;;;;7.03;4.57;;;6.20;1.00;;;;;;5042758;28;20631;-59
2022/04/21 03:42:19;;;;;;;7.10;4.17;;;6.10;1.00;;;;;;5058528;28;20234;-59
2022/04/21 03:44:50;;;;;;;7.13;4.07;;;6.10;1.00;;;;;;5057682;28;20784;-58
2022/04/21 03:47:17;;;;;;;5.10;4.23;;;6.00;1.00;;;;;;5057165;28;20775;-58
2022/04/21 03:49:44;;;;;;;4.70;4.30;;;6.00;1.00;;;;;;5058546;28;20196;-58
2022/04/21 03:52:11;;;;;;;8.70;4.80;;;6.00;1.00;;;;;;5039439;28;20195;-59
2022/04/21 03:54:39;;;;;;;8.87;4.50;;;5.90;1.00;;;;;;5043108;28;20282;-58
2022/04/21 03:57:09;;;;;;;6.63;4.40;;;5.90;1.00;;;;;;5059255;28;20681;-58
2022/04/21 03:59:36;;;;;;;7.93;4.67;;;5.90;1.00;;;;;;5059396;28;20242;-59
2022/04/21 04:02:04;;;;;;;8.67;4.90;;;5.80;1.00;;;;;;5042325;28;20223;-59
2022/04/21 04:04:33;;;;;;;5.30;3.90;;;5.80;10.30;;;;;;5040133;28;21103;-59
2022/04/21 04:12:34;;;;;;;12.07;4.60;;;5.70;99.90;;;;;;5041951;28;20191;-59
2022/04/21 04:15:03;;;;;;;6.83;4.60;;;5.70;99.90;;;;;;5059759;28;20902;-59
2022/04/21 04:17:31;;;;;;;6.57;4.33;;;5.80;99.90;;;;;;5056745;28;20694;-59
2022/04/21 04:19:59;;;;;;;5.30;4.37;;;5.90;99.90;;;;;;5035713;28;20202;-59
2022/04/21 04:22:26;;;;;;;5.40;4.90;;;6.00;99.90;;;;;;5034735;28;20717;-59
2022/04/21 04:24:55;;;;;;;5.40;4.07;;;6.00;99.90;;;;;;5044546;28;20245;-59
2022/04/21 04:27:22;;;;;;;10.57;4.53;;;6.00;99.90;;;;;;5062592;28;20194;-60
2022/04/21 04:29:50;;;;;;;8.17;5.10;;;6.00;99.90;;;;;;5063518;28;20321;-60
2022/04/21 04:32:17;;;;;;;10.43;5.23;;;6.00;58.30;;;;;;5064142;28;20274;-60
2022/04/21 04:34:44;;;;;;;13.43;4.53;;;5.90;48.80;;;;;;5062481;28;20202;-59
2022/04/21 04:37:11;;;;;;;9.63;4.63;;;6.00;20.50;;;;;;5064125;28;20206;-59
2022/04/21 04:39:38;;;;;;;6.93;4.60;;;5.90;6.30;;;;;;5062909;28;20258;-59
2022/04/21 04:42:16;;;;;;;5.83;4.23;;;6.10;1.00;;;;;;5061832;28;20206;-59
2022/04/21 04:44:49;;;;;;;5.97;5.20;;;6.10;1.00;;;;;;5062428;28;20275;-59
2022/04/21 04:47:18;;;;;;;7.20;4.60;;;6.20;1.00;;;;;;5023665;28;20553;-59
2022/04/21 04:49:45;;;;;;;5.93;4.73;;;6.20;1.00;;;;;;5045414;28;20191;-59
2022/04/21 04:52:12;;;;;;;7.97;4.80;;;6.40;1.00;;;;;;5059194;28;20685;-59
2022/04/21 04:54:39;;;;;;;6.80;4.73;;;6.50;1.00;;;;;;5064177;28;20289;-59
2022/04/21 04:57:06;;;;;;;7.33;4.70;;;6.60;1.00;;;;;;5042083;28;20794;-60
2022/04/21 04:59:33;;;;;;;11.73;5.07;;;6.70;1.00;;;;;;5063406;28;20210;-60
2022/04/21 05:02:01;;;;;;;8.80;4.63;;;6.70;1.00;;;;;;5060949;28;20563;-60
2022/04/21 05:04:28;;;;;;;8.57;5.10;;;6.70;1.00;;;;;;5041013;28;20285;-60
2022/04/21 05:06:57;;;;;;;8.63;6.50;;;6.60;1.00;;;;;;5063494;28;20258;-60
2022/04/21 05:09:25;;;;;;;8.90;4.87;;;6.70;1.00;;;;;;5063069;28;20262;-59
2022/04/21 05:11:53;;;;;;;10.47;5.30;;;6.70;1.00;;;;;;5064048;28;20203;-59
2022/04/21 05:14:21;;;;;;;9.60;4.53;;;6.70;1.00;;;;;;5064852;28;20191;-60
2022/04/21 05:16:49;;;;;;;5.53;4.30;;;6.80;1.00;;;;;;5044636;28;20722;-60
2022/04/21 05:19:19;;;;;;;8.73;5.10;;;6.90;1.00;;;;;;5063532;28;20622;-59
2022/04/21 05:21:47;;;;;;;7.50;4.13;;;7.10;1.00;;;;;;5062934;28;20191;-59
2022/04/21 05:24:15;;;;;;;5.23;4.10;;;7.10;1.00;;;;;;5045813;28;20205;-59
2022/04/21 05:26:45;;;;;;;4.63;3.87;;;7.30;1.00;;;;;;5061860;28;20747;-59
2022/04/21 05:32:03;;;;;;;7.27;4.60;;;7.10;1.00;;;;;;5063672;28;20199;-59
2022/04/21 05:34:32;;;;;;;8.60;4.40;;;7.20;1.00;;;;;;5062168;28;20256;-59
2022/04/21 05:37:00;;;;;;;9.67;3.80;;;7.30;1.00;;;;;;5061126;28;20244;-60
2022/04/21 05:39:28;;;;;;;15.93;5.10;;;7.60;1.00;;;;;;5041954;28;20349;-59
2022/04/21 05:41:57;;;;;;;7.37;4.47;;;7.80;1.00;;;;;;5065236;28;20229;-59
2022/04/21 05:44:27;;;;;;;7.13;3.80;;;8.10;1.00;;;;;;5045743;28;20562;-59
2022/04/21 05:46:55;;;;;;;8.83;4.23;;;9.30;1.00;;;;;;5044197;28;20214;-60
2022/04/21 05:49:22;;;;;;;15.40;4.43;;;11.40;1.00;;;;;;5061040;28;20222;-60
2022/04/21 05:51:52;;;;;;;10.10;4.03;;;11.30;1.00;;;;;;5059841;28;20281;-60
2022/04/21 05:54:19;;;;;;;6.33;3.83;;;10.80;35.60;;;;;;5061411;28;20191;-60
2022/04/21 05:56:46;;;;;;;4.87;3.53;;;12.40;1.00;;;;;;5061601;28;20279;-60
2022/04/21 05:59:13;;;;;;;5.63;3.50;;;14.20;1.00;;;;;;5062417;28;20299;-60
2022/04/21 06:01:40;;;;;;;4.43;3.40;;;14.60;1.00;;;;;;5063081;28;20236;-60
2022/04/21 06:04:07;;;;;;;6.97;4.40;;;15.70;1.00;;;;;;5065006;28;20667;-60
2022/04/21 06:06:34;;;;;;;8.67;4.27;;;16.80;99.90;;;;;;5040728;28;20207;-60
2022/04/21 06:09:01;;;;;;;5.23;3.63;;;17.60;99.90;;;;;;5040495;28;20560;-60
2022/04/21 06:11:28;;;;;;;4.72;3.78;;;17.70;99.90;;;;;;5060030;28;20187;-59
2022/04/21 06:13:55;;;;;;;5.60;3.45;;;18.70;99.90;;;;;;5060970;28;20254;-57
2022/04/21 06:16:22;;;;;;;4.07;3.33;;;19.50;99.90;;;;;;5059262;28;20381;-57
2022/04/21 06:18:50;;;;;;;5.15;2.97;;;19.90;99.90;;;;;;5060020;28;20531;-57
2022/04/21 06:21:17;;;;;;;5.55;3.60;;;20.30;99.90;;;;;;5049087;28;20233;-58
2022/04/21 06:23:44;;;;;;;3.33;2.90;;;20.50;99.90;;;;;;5060504;28;20203;-58
2022/04/21 06:26:11;;;;;;;6.18;3.40;;;21.10;99.90;;;;;;5062216;28;20264;-58
2022/04/21 06:28:38;;;;;;;5.10;3.45;;;22.00;99.90;;;;;;5048728;28;20195;-58
2022/04/21 06:31:05;;;;;;;5.57;3.42;;;22.00;99.90;;;;;;5060384;28;20183;-59
2022/04/21 06:33:33;;;;;;;5.05;3.50;;;22.40;99.90;;;;;;5060736;28;20214;-58
2022/04/21 06:36:02;;;;;;;6.38;3.80;;;22.50;99.90;;;;;;5062265;28;20230;-58
2022/04/21 06:38:29;;;;;;;4.07;3.67;;;22.20;99.90;;;;;;5044357;28;20281;-58
2022/04/21 06:40:56;;;;;;;4.22;3.28;;;22.30;99.90;;;;;;5063105;28;20739;-58
2022/04/21 06:48:54;;;;;;;3.35;3.05;;;24.30;99.90;;;;;;5061957;28;20236;-58
2022/04/21 06:51:21;;;;;;;5.80;3.60;;;25.20;99.90;;;;;;5060067;28;20191;-58
2022/04/21 06:53:48;;;;;;;5.30;3.42;;;24.90;99.90;;;;;;5058270;28;20230;-58
2022/04/21 06:56:16;;;;;;;3.85;3.45;;;24.40;99.90;;;;;;5060013;28;20282;-58
2022/04/21 06:58:43;;;;;;;3.40;2.78;;;23.70;99.90;;;;;;5041117;28;20199;-58
2022/04/21 07:01:10;;;;;;;4.10;2.90;;;23.10;99.90;;;;;;5041019;28;20292;-58
2022/04/21 07:03:37;;;;;;;4.55;3.03;;;23.30;99.90;;;;;;5060022;28;20832;-58
2022/04/21 07:06:04;;;;;;;6.30;3.63;;;22.50;99.90;;;;;;5057666;28;20219;-59
2022/04/21 07:08:31;;;;;;;5.07;3.10;;;23.10;99.90;;;;;;5060440;28;20329;-58
2022/04/21 07:10:58;;;;;;;5.20;3.40;;;21.90;99.90;;;;;;5062380;28;20215;-58
2022/04/21 07:13:25;;;;;;;6.32;3.83;;;20.10;99.90;;;;;;5045849;28;20199;-58
2022/04/21 07:15:53;;;;;;;6.60;4.47;;;20.60;99.90;;;;;;5058077;28;20199;-58
2022/04/21 07:18:21;;;;;;;5.00;3.60;;;21.30;99.90;;;;;;5063109;28;20195;-58
2022/04/21 07:20:48;;;;;;;4.65;3.50;;;20.90;99.90;;;;;;5059744;28;20231;-57
2022/04/21 07:23:15;;;;;;;6.97;3.70;;;20.50;99.90;;;;;;5063550;28;20560;-58
2022/04/21 07:25:42;;;;;;;5.10;3.53;;;20.50;99.90;;;;;;5061811;28;20203;-58
2022/04/21 07:28:09;;;;;;;5.82;3.50;;;20.10;99.90;;;;;;5059631;28;20199;-57
2022/04/21 07:30:36;;;;;;;5.63;3.58;;;21.80;99.90;;;;;;5041466;28;20246;-58
2022/04/21 07:33:04;;;;;;;5.68;3.50;;;22.40;99.90;;;;;;5062236;28;20195;-58
2022/04/21 07:35:32;;;;;;;5.32;3.75;;;23.20;99.90;;;;;;5051791;28;20230;-58
2022/04/21 07:38:00;;;;;;;6.43;3.10;;;20.00;99.90;;;;;;5068359;28;20274;-58
2022/04/21 07:40:28;;;;;;;5.45;3.53;;;20.00;99.90;;;;;;5062824;28;20223;-58
2022/04/21 07:42:55;;;;;;;5.53;2.90;;;17.90;99.90;;;;;;5063197;28;20592;-58
2022/04/21 07:45:22;;;;;;;6.22;3.95;;;16.60;99.90;;;;;;5062737;28;20195;-58
2022/04/21 07:47:49;;;;;;;5.35;3.85;;;16.40;99.90;;;;;;5057767;28;20226;-59
2022/04/21 07:50:16;;;;;;;8.13;3.90;;;16.50;99.90;;;;;;5059564;28;21199;-58
2022/04/21 07:53:15;;;;;;;5.43;3.50;;;16.20;99.90;;;;;;5046143;28;20214;-58
2022/04/21 07:55:47;;;;;;;5.00;3.37;;;15.80;99.90;;;;;;5040751;28;20728;-58
2022/04/21 07:58:14;;;;;;;4.80;3.40;;;15.20;99.90;;;;;;5039861;28;20195;-58
2022/04/21 08:00:41;;;;;;;5.57;3.57;;;14.50;99.90;;;;;;5063565;28;20228;-58
2022/04/21 08:03:11;;;;;;;5.33;3.57;;;14.40;99.90;;;;;;5065704;28;20183;-59
2022/04/21 08:05:41;;;;;;;4.10;3.53;;;14.30;99.90;;;;;;5061362;28;20194;-58
2022/04/21 08:08:11;;;;;;;5.13;3.50;;;14.30;99.90;;;;;;5043022;28;20203;-58
2022/04/21 08:10:38;;;;;;;7.10;3.70;;;14.40;99.90;;;;;;5059742;28;20191;-58
2022/04/21 08:13:05;;;;;;;4.43;3.67;;;14.30;99.90;;;;;;5042096;28;20206;-59
2022/04/21 08:15:34;;;;;;;6.53;3.83;;;14.70;99.90;;;;;;5063978;28;20195;-60
2022/04/21 08:18:03;;;;;;;4.13;3.57;;;14.60;99.90;;;;;;5063891;28;20595;-59
2022/04/21 08:20:32;;;;;;;5.30;3.70;;;13.50;99.90;;;;;;5058836;28;20187;-59
2022/04/21 08:22:59;;;;;;;8.43;4.47;;;13.90;99.90;;;;;;5043595;28;20198;-59
2022/04/21 08:34:24;;;;;;;4.83;3.27;;;14.90;99.90;;;;;;5064847;28;20277;-59
2022/04/21 08:36:54;;;;;;;5.23;3.50;;;14.30;99.90;;;;;;5024479;28;20199;-59
2022/04/21 08:39:21;;;;;;;4.40;3.70;;;14.20;99.90;;;;;;5059844;28;20353;-59
2022/04/21 08:41:52;;;;;;;5.63;3.70;;;14.20;99.90;;;;;;5062717;28;20222;-59
2022/04/21 08:44:20;;;;;;;7.37;4.63;;;13.80;99.90;;;;;;5061961;28;20603;-59
2022/04/21 08:46:48;;;;;;;4.93;4.40;;;13.90;99.90;;;;;;5060519;28;20274;-62
2022/04/21 08:49:18;;;;;;;6.57;4.53;;;14.40;99.90;;;;;;5063103;28;20187;-61
2022/04/21 08:51:45;;;;;;;5.27;3.77;;;14.50;99.90;;;;;;5041335;28;20188;-61
2022/04/21 08:54:12;;;;;;;4.90;3.77;;;14.60;99.90;;;;;;5059471;28;20220;-62
2022/04/21 08:56:40;;;;;;;8.17;3.80;;;14.70;99.90;;;;;;5019373;28;20290;-62
2022/04/21 08:59:07;;;;;;;4.03;3.57;;;15.60;99.90;;;;;;5057340;28;20222;-62
2022/04/21 09:01:34;;;;;;;5.37;3.23;;;16.80;99.90;;;;;;5059521;28;20297;-62
2022/04/21 09:04:02;;;;;;;5.07;3.00;;;17.90;99.90;;;;;;5040470;28;20286;-62
2022/04/21 09:06:29;;;;;;;5.93;3.72;;;19.00;99.90;;;;;;5044323;28;20238;-62
2022/04/21 09:09:34;;;;;;;5.38;3.20;;;18.00;99.90;;;;;;5050749;28;20266;-61
2022/04/21 09:12:01;;;;;;;6.70;3.40;;;17.40;99.90;;;;;;4943116;28;20203;-62
2022/04/21 09:14:28;;;;;;;5.75;3.13;;;17.00;99.90;;;;;;5033982;28;20211;-62
2022/04/21 09:17:03;;;;;;;8.67;3.50;;;16.90;99.90;;;;;;5066295;28;20221;-62
2022/04/21 09:19:30;;;;;;;5.10;3.37;;;15.90;99.90;;;;;;5065088;28;20190;-61
2022/04/21 09:21:57;;;;;;;4.57;3.10;;;15.40;99.90;;;;;;5065768;28;20209;-61
2022/04/21 09:24:26;;;;;;;5.67;3.30;;;15.20;99.90;;;;;;5045200;28;20203;-62
2022/04/21 09:26:56;;;;;;;7.30;3.40;;;15.30;99.90;;;;;;5043518;28;20211;-61
2022/04/21 09:29:24;;;;;;;7.50;5.10;;;15.40;99.90;;;;;;5041572;28;20231;-61
2022/04/21 09:32:03;;;;;;;4.27;3.00;;;14.70;99.90;;;;;;5065232;28;20218;-61
2022/04/21 09:34:36;;;;;;;6.03;3.60;;;14.30;99.90;;;;;;5067180;28;20222;-61
2022/04/21 09:37:06;;;;;;;5.13;3.07;;;14.30;99.90;;;;;;5061536;28;20257;-61
2022/04/21 09:39:40;;;;;;;5.90;3.13;;;14.60;99.90;;;;;;5064698;28;20295;-61
2022/04/21 09:42:07;;;;;;;7.63;3.57;;;15.10;99.90;;;;;;5042153;28;20302;-61
2022/04/21 09:47:29;;;;;;;4.93;3.23;;;14.60;99.90;;;;;;5045916;28;20219;-62
2022/04/21 09:49:57;;;;;;;4.60;3.30;;;14.00;99.90;;;;;;5061709;28;20281;-62
2022/04/21 09:52:27;;;;;;;5.57;3.70;;;14.00;99.90;;;;;;5061970;28;20220;-62
2022/04/21 09:54:55;;;;;;;6.33;3.53;;;14.40;99.90;;;;;;5063137;28;20197;-62
2022/04/21 09:57:32;;;;;;;6.53;3.20;;;14.30;99.90;;;;;;5064527;28;20230;-62
2022/04/21 09:59:59;;;;;;;6.23;3.70;;;14.20;99.90;;;;;;5066334;28;20199;-62
2022/04/21 10:02:33;;;;;;;5.70;3.37;;;15.00;99.90;;;;;;5059901;28;20248;-62
2022/04/21 10:05:02;;;;;;;8.60;3.97;;;15.50;99.90;;;;;;5062600;28;20217;-62
2022/04/21 10:07:29;;;;;;;4.60;3.20;;;15.60;99.90;;;;;;5064145;28;20297;-62
2022/04/21 10:09:57;;;;;;;6.50;3.33;;;16.40;99.90;;;;;;5065375;28;20199;-62
2022/04/21 10:12:25;;;;;;;7.03;3.37;;;16.20;99.90;;;;;;5067616;28;20290;-62
2022/04/21 10:14:53;;;;;;;5.65;3.35;;;17.70;99.90;;;;;;5061935;28;20198;-61
2022/04/21 10:17:21;;;;;;;4.28;3.38;;;21.30;99.90;;;;;;5063066;28;20669;-61
2022/04/21 10:19:50;;;;;;;5.60;3.38;;;21.60;99.90;;;;;;5062640;28;20819;-61
2022/04/21 10:22:27;;;;;;;6.68;3.42;;;20.80;99.90;;;;;;5045707;28;20197;-61
2022/04/21 10:24:57;;;;;;;5.10;3.30;;;22.20;99.90;;;;;;5060274;28;20289;-61
2022/04/21 10:27:37;;;;;;;6.43;3.10;;;19.80;99.90;;;;;;5037168;28;20904;-61
2022/04/21 10:30:15;;;;;;;4.32;3.72;;;19.40;99.90;;;;;;5063862;28;20240;-61
2022/04/21 10:32:51;;;;;;;4.72;3.20;;;17.90;99.90;;;;;;5065024;28;20721;-62
2022/04/21 10:35:24;;;;;;;5.28;3.50;;;17.10;99.90;;;;;;5061726;28;20218;-62
2022/04/21 10:38:12;;;;;;;4.65;3.65;;;16.10;99.90;;;;;;5058694;28;22102;-62
2022/04/21 10:41:02;;;;;;;7.13;3.63;;;15.80;99.90;;;;;;5040007;28;20246;-61
2022/04/21 10:43:48;;;;;;;6.83;3.80;;;16.50;99.90;;;;;;5045813;28;20260;-60
2022/04/21 10:46:21;;;;;;;8.02;3.63;;;17.90;99.90;;;;;;5061886;28;20709;-62
2022/04/21 10:48:48;;;;;;;7.13;3.58;;;18.90;99.90;;;;;;5061250;28;20201;-62
2022/04/21 10:57:36;;;;;;;6.32;3.63;;;19.20;99.90;;;;;;5060772;28;20845;-62
2022/04/21 11:00:09;;;;;;;4.72;3.58;;;18.10;99.90;;;;;;5063124;28;20914;-61
2022/04/21 11:02:44;;;;;;;6.13;3.80;;;18.30;99.90;;;;;;5056383;28;20594;-62
2022/04/21 11:05:31;;;;;;;8.27;3.80;;;17.90;99.90;;;;;;5051923;28;20199;-62
2022/04/21 11:08:00;;;;;;;4.90;3.78;;;17.10;99.90;;;;;;5064522;28;20222;-62
2022/04/21 11:10:38;;;;;;;7.70;3.80;;;16.20;99.90;;;;;;5061695;28;20884;-62
2022/04/21 11:13:07;;;;;;;4.67;3.40;;;16.30;99.90;;;;;;5062800;28;20183;-62
2022/04/21 11:15:49;;;;;;;5.73;4.03;;;16.20;99.90;;;;;;5062029;28;20201;-62
2022/04/21 11:18:22;;;;;;;5.43;3.70;;;16.80;99.90;;;;;;5060596;28;20252;-62
2022/04/21 11:20:50;;;;;;;5.90;3.77;;;15.80;99.90;;;;;;5044133;28;20278;-61
2022/04/21 11:23:30;;;;;;;5.80;4.00;;;15.80;99.90;;;;;;5060395;28;21237;-62
2022/04/21 11:30:14;;;;;;;5.80;4.00;;;17.20;99.90;;;;;;5063290;28;20207;-62
2022/04/21 11:32:52;;;;;;;9.50;3.90;;;16.70;99.90;;;;;;5059744;28;20680;-62
2022/04/21 11:35:24;;;;;;;4.83;3.73;;;16.50;99.90;;;;;;5046544;28;20661;-61
2022/04/21 11:37:58;;;;;;;7.78;4.07;;;17.40;99.90;;;;;;5062533;28;20563;-61
2022/04/21 11:40:32;;;;;;;9.63;4.65;;;17.40;99.90;;;;;;5045814;28;20961;-62
2022/04/21 11:43:04;;;;;;;7.50;4.18;;;16.60;99.90;;;;;;5062129;28;20183;-61
2022/04/21 11:45:35;;;;;;;4.57;3.67;;;16.50;99.90;;;;;;5062381;28;20243;-61
2022/04/21 11:48:09;;;;;;;5.03;3.97;;;16.30;99.90;;;;;;5062254;28;20554;-61
2022/04/21 11:50:36;;;;;;;6.72;4.10;;;16.50;99.90;;;;;;5051504;28;20194;-61
2022/04/21 11:53:21;;;;;;;7.13;4.05;;;17.10;99.90;;;;;;5067989;28;20274;-62
2022/04/21 11:55:50;;;;;;;7.93;4.22;;;17.00;99.90;;;;;;5062863;28;20636;-62
2022/04/21 11:58:31;;;;;;;5.63;3.80;;;17.50;99.90;;;;;;5070537;28;20802;-62
2022/04/21 12:06:38;;;;;;;4.80;3.55;;;17.60;99.90;;;;;;5063341;28;20225;-62
2022/04/21 12:09:07;;;;;;;4.57;4.15;;;17.60;99.90;;;;;;5062142;28;20302;-62
2022/04/21 12:11:35;;;;;;;5.53;3.97;;;18.10;99.90;;;;;;5065182;28;20673;-62
2022/04/21 12:14:02;;;;;;;4.53;3.80;;;18.90;99.90;;;;;;5064532;28;20830;-59
2022/04/21 12:16:46;;;;;;;3.92;3.55;;;19.20;99.90;;;;;;5063094;28;20217;-59
2022/04/21 12:19:33;;;;;;;6.57;3.35;;;19.30;99.90;;;;;;5063324;28;20293;-62
2022/04/21 12:22:20;;;;;;;6.68;3.78;;;19.00;99.90;;;;;;5060865;28;20301;-61
2022/04/21 12:24:53;;;;;;;7.78;3.60;;;18.00;99.90;;;;;;5043797;28;20894;-62
2022/04/21 12:27:23;;;;;;;6.60;3.70;;;17.50;99.90;;;;;;5062198;28;20238;-62
2022/04/21 12:29:54;;;;;;;4.63;4.05;;;16.90;99.90;;;;;;5062863;28;20221;-62
2022/04/21 12:32:29;;;;;;;7.50;4.67;;;16.80;99.90;;;;;;5063779;28;20741;-62
2022/04/21 12:34:58;;;;;;;8.67;4.10;;;16.40;99.90;;;;;;5047435;28;20186;-62
2022/04/21 12:37:27;;;;;;;6.53;4.40;;;16.90;99.90;;;;;;5060780;28;20210;-62
2022/04/21 12:39:56;;;;;;;4.78;4.28;;;18.10;99.90;;;;;;5059651;28;20696;-62
2022/04/21 12:42:42;;;;;;;6.15;4.25;;;18.90;99.90;;;;;;5048227;28;20279;-61
2022/04/21 12:45:11;;;;;;;6.63;4.13;;;18.50;99.90;;;;;;5056048;28;20944;-61
2022/04/21 12:47:49;;;;;;;7.38;4.68;;;18.80;99.90;;;;;;5064121;28;20238;-61
2022/04/21 12:50:21;;;;;;;6.85;4.40;;;17.40;99.90;;;;;;5066298;28;20187;-61
2022/04/21 12:52:52;;;;;;;13.57;4.38;;;17.20;99.90;;;;;;5066657;28;20229;-61
2022/04/21 12:55:28;;;;;;;5.77;4.60;;;17.10;99.90;;;;;;5066642;28;20288;-61
2022/04/21 12:58:09;;;;;;;6.80;3.73;;;17.20;99.90;;;;;;5056808;28;20206;-61
2022/04/21 13:00:41;;;;;;;7.50;4.67;;;17.10;99.90;;;;;;5067683;28;20220;-63
2022/04/21 13:03:11;;;;;;;6.63;4.20;;;16.90;99.90;;;;;;5069262;28;20282;-63
2022/04/21 13:05:51;;;;;;;8.90;4.17;;;16.90;99.90;;;;;;5066575;28;20195;-61
2022/04/21 13:08:19;;;;;;;8.70;4.50;;;16.60;99.90;;;;;;5065774;28;20210;-61
2022/04/21 13:10:47;;;;;;;6.30;4.60;;;16.10;99.90;;;;;;5066601;28;20232;-61
2022/04/21 13:13:14;;;;;;;7.00;4.53;;;16.30;99.90;;;;;;5066809;28;20195;-60
2022/04/21 13:15:41;;;;;;;6.67;4.50;;;16.50;99.90;;;;;;5065250;28;20190;-61
2022/04/21 13:18:08;;;;;;;7.33;4.90;;;16.50;99.90;;;;;;5067831;28;20617;-61
2022/04/21 13:24:10;;;;;;;9.10;4.80;;;16.40;99.90;;;;;;5066879;28;20244;-61
2022/04/21 13:26:39;;;;;;;5.70;4.70;;;16.80;99.90;;;;;;5067748;28;20499;-61
2022/04/21 13:29:06;;;;;;;6.93;5.10;;;16.80;99.90;;;;;;5060849;28;20215;-62
2022/04/21 13:34:19;;;;;;;5.93;4.90;;;16.60;99.90;;;;;;5049675;28;20203;-61
2022/04/21 13:36:46;;;;;;;6.27;5.10;;;16.70;99.90;;;;;;5049464;28;20199;-63
2022/04/21 13:39:13;;;;;;;6.00;4.73;;;16.90;99.90;;;;;;5065857;28;20288;-62
2022/04/21 14:45:56;;;;;;;6.73;4.07;;;16.60;99.90;;;;;;5067566;28;20215;-61
2022/04/21 14:48:24;;;;;;;6.60;4.03;;;16.70;99.90;;;;;;5063207;28;20226;-61
2022/04/21 14:50:51;;;;;;;8.10;4.03;;;16.80;99.90;;;;;;5053738;28;20195;-62
2022/04/21 14:53:18;;;;;;;4.97;3.90;;;16.90;99.90;;;;;;5063584;28;20728;-62
2022/04/21 14:55:45;;;;;;;7.20;4.50;;;16.90;99.90;;;;;;5053670;28;20244;-61
2022/04/21 14:58:12;;;;;;;7.97;4.27;;;16.70;99.90;;;;;;5062760;28;20244;-61
2022/04/21 15:00:42;;;;;;;5.27;4.17;;;16.80;99.90;;;;;;5067901;28;20198;-61
2022/04/21 15:03:11;;;;;;;9.00;4.40;;;17.20;99.90;;;;;;5067091;28;20595;-62
2022/04/21 15:05:40;;;;;;;4.97;4.47;;;17.40;99.90;;;;;;5069060;28;20262;-62
2022/04/21 15:08:10;;;;;;;6.20;4.33;;;17.30;99.90;;;;;;5054900;28;20207;-62